sensor_id;sensor_type;location;lat;lon;timestamp;pressure;altitude;pressure_sealevel;temperature;humidity
74905;BME280;63465;50.862;6.220;2023-08-06T00:00:46;98804.66;;;14.69;100.00
74905;BME280;63465;50.862;6.220;2023-08-06T00:03:12;98805.13;;;14.74;100.00
74905;BME280;63465;50.862;6.220;2023-08-06T00:05:41;98806.19;;;14.71;100.00
74905;BME280;63465;50.862;6.220;2023-08-06T00:08:07;98814.72;;;14.65;100.00
74905;BME280;63465;50.862;6.220;2023-08-06T00:10:32;98811.53;;;14.71;100.00
74905;BME280;63465;50.862;6.220;2023-08-06T00:12:57;98815.22;;;14.70;100.00
74905;BME280;63465;50.862;6.220;2023-08-06T00:15:22;98809.72;;;14.83;100.00
74905;BME280;63465;50.862;6.220;2023-08-06T00:17:48;98807.91;;;14.72;100.00
74905;BME280;63465;50.862;6.220;2023-08-06T00:20:13;98807.44;;;14.67;100.00
74905;BME280;63465;50.862;6.220;2023-08-06T00:22:38;98808.88;;;14.71;100.00
74905;BME280;63465;50.862;6.220;2023-08-06T00:25:04;98806.09;;;14.50;100.00
74905;BME280;63465;50.862;6.220;2023-08-06T00:27:30;98802.94;;;14.68;100.00
74905;BME280;63465;50.862;6.220;2023-08-06T00:29:55;98802.47;;;14.62;100.00
74905;BME280;63465;50.862;6.220;2023-08-06T00:32:21;98802.91;;;14.79;100.00
74905;BME280;63465;50.862;6.220;2023-08-06T00:34:46;98797.34;;;14.71;100.00
74905;BME280;63465;50.862;6.220;2023-08-06T00:37:14;98800.41;;;14.66;100.00
74905;BME280;63465;50.862;6.220;2023-08-06T00:39:39;98801.47;;;14.63;100.00
74905;BME280;63465;50.862;6.220;2023-08-06T00:42:04;98807.78;;;14.74;100.00
74905;BME280;63465;50.862;6.220;2023-08-06T00:44:30;98805.16;;;14.62;100.00
74905;BME280;63465;50.862;6.220;2023-08-06T00:46:55;98812.16;;;14.52;100.00
74905;BME280;63465;50.862;6.220;2023-08-06T00:49:20;98804.63;;;14.46;100.00
74905;BME280;63465;50.862;6.220;2023-08-06T00:51:46;98804.38;;;14.26;100.00
74905;BME280;63465;50.862;6.220;2023-08-06T00:54:12;98815.28;;;14.23;100.00
74905;BME280;63465;50.862;6.220;2023-08-06T00:56:38;98811.03;;;14.21;100.00
74905;BME280;63465;50.862;6.220;2023-08-06T00:59:06;98811.03;;;14.21;100.00
74905;BME280;63465;50.862;6.220;2023-08-06T01:01:32;98820.03;;;14.20;100.00
74905;BME280;63465;50.862;6.220;2023-08-06T01:03:57;98822.69;;;14.20;100.00
74905;BME280;63465;50.862;6.220;2023-08-06T01:06:40;98821.72;;;14.21;100.00
74905;BME280;63465;50.862;6.220;2023-08-06T01:09:27;98824.50;;;14.08;100.00
74905;BME280;63465;50.862;6.220;2023-08-06T01:12:09;98820.84;;;13.98;100.00
74905;BME280;63465;50.862;6.220;2023-08-06T01:15:07;98816.72;;;13.94;100.00
74905;BME280;63465;50.862;6.220;2023-08-06T01:17:30;98812.53;;;13.78;100.00
74905;BME280;63465;50.862;6.220;2023-08-06T01:19:56;98818.88;;;13.88;100.00
74905;BME280;63465;50.862;6.220;2023-08-06T01:22:21;98818.63;;;13.80;100.00
74905;BME280;63465;50.862;6.220;2023-08-06T01:24:49;98817.31;;;13.86;100.00
74905;BME280;63465;50.862;6.220;2023-08-06T01:29:56;98814.41;;;14.00;100.00
74905;BME280;63465;50.862;6.220;2023-08-06T01:32:24;98802.06;;;14.22;100.00
74905;BME280;63465;50.862;6.220;2023-08-06T01:34:51;98806.19;;;14.37;100.00
74905;BME280;63465;50.862;6.220;2023-08-06T01:37:19;98800.00;;;14.25;100.00
74905;BME280;63465;50.862;6.220;2023-08-06T01:39:45;98806.19;;;14.37;100.00
74905;BME280;63465;50.862;6.220;2023-08-06T01:42:10;98804.38;;;14.49;100.00
74905;BME280;63465;50.862;6.220;2023-08-06T01:44:35;98802.31;;;14.41;100.00
74905;BME280;63465;50.862;6.220;2023-08-06T01:47:01;98798.09;;;14.50;100.00
74905;BME280;63465;50.862;6.220;2023-08-06T01:49:26;98785.69;;;14.49;100.00
74905;BME280;63465;50.862;6.220;2023-08-06T01:51:51;98788.47;;;14.36;100.00
74905;BME280;63465;50.862;6.220;2023-08-06T01:54:17;98796.25;;;14.28;100.00
74905;BME280;63465;50.862;6.220;2023-08-06T01:56:42;98799.88;;;14.27;100.00
74905;BME280;63465;50.862;6.220;2023-08-06T01:59:07;98795.88;;;14.55;100.00
74905;BME280;63465;50.862;6.220;2023-08-06T02:01:33;98781.84;;;14.65;100.00
74905;BME280;63465;50.862;6.220;2023-08-06T02:03:58;98784.50;;;14.65;100.00
74905;BME280;63465;50.862;6.220;2023-08-06T02:06:23;98785.56;;;14.51;100.00
74905;BME280;63465;50.862;6.220;2023-08-06T02:08:48;98783.25;;;14.35;100.00
74905;BME280;63465;50.862;6.220;2023-08-06T02:11:14;98781.34;;;14.37;100.00
74905;BME280;63465;50.862;6.220;2023-08-06T02:13:39;98784.59;;;14.40;100.00
74905;BME280;63465;50.862;6.220;2023-08-06T02:16:07;98782.53;;;14.44;100.00
74905;BME280;63465;50.862;6.220;2023-08-06T02:18:33;98784.38;;;14.66;100.00
74905;BME280;63465;50.862;6.220;2023-08-06T02:20:59;98776.97;;;14.36;100.00
74905;BME280;63465;50.862;6.220;2023-08-06T02:23:25;98760.47;;;14.53;100.00
74905;BME280;63465;50.862;6.220;2023-08-06T02:26:03;98763.59;;;14.47;100.00
74905;BME280;63465;50.862;6.220;2023-08-06T02:28:30;98756.94;;;14.53;100.00
74905;BME280;63465;50.862;6.220;2023-08-06T02:30:55;98770.78;;;14.35;100.00
74905;BME280;63465;50.862;6.220;2023-08-06T02:33:21;98767.13;;;14.36;100.00
74905;BME280;63465;50.862;6.220;2023-08-06T02:35:46;98763.72;;;14.45;100.00
74905;BME280;63465;50.862;6.220;2023-08-06T02:38:11;98762.88;;;14.56;100.00
74905;BME280;63465;50.862;6.220;2023-08-06T02:40:36;98751.47;;;14.54;100.00
74905;BME280;63465;50.862;6.220;2023-08-06T02:43:07;98756.47;;;14.48;100.00
74905;BME280;63465;50.862;6.220;2023-08-06T02:45:32;98750.03;;;14.50;100.00
74905;BME280;63465;50.862;6.220;2023-08-06T02:47:58;98755.63;;;14.36;100.00
74905;BME280;63465;50.862;6.220;2023-08-06T02:50:23;98752.59;;;14.29;100.00
74905;BME280;63465;50.862;6.220;2023-08-06T02:52:49;98759.03;;;14.26;100.00
74905;BME280;63465;50.862;6.220;2023-08-06T02:55:14;98751.00;;;14.38;100.00
74905;BME280;63465;50.862;6.220;2023-08-06T02:57:39;98752.09;;;14.24;100.00
74905;BME280;63465;50.862;6.220;2023-08-06T03:00:05;98751.63;;;14.07;100.00
74905;BME280;63465;50.862;6.220;2023-08-06T03:02:31;98750.75;;;14.07;100.00
74905;BME280;63465;50.862;6.220;2023-08-06T03:04:56;98752.97;;;14.02;100.00
74905;BME280;63465;50.862;6.220;2023-08-06T03:07:21;98754.16;;;14.20;100.00
74905;BME280;63465;50.862;6.220;2023-08-06T03:09:47;98752.09;;;14.13;100.00
74905;BME280;63465;50.862;6.220;2023-08-06T03:12:13;98749.69;;;14.09;100.00
74905;BME280;63465;50.862;6.220;2023-08-06T03:14:38;98741.81;;;14.08;100.00
74905;BME280;63465;50.862;6.220;2023-08-06T03:17:03;98753.81;;;14.14;100.00
74905;BME280;63465;50.862;6.220;2023-08-06T03:19:29;98750.66;;;14.20;100.00
74905;BME280;63465;50.862;6.220;2023-08-06T03:21:54;98751.97;;;14.25;100.00
74905;BME280;63465;50.862;6.220;2023-08-06T03:24:19;98749.56;;;14.34;100.00
74905;BME280;63465;50.862;6.220;2023-08-06T03:26:45;98744.22;;;14.22;100.00
74905;BME280;63465;50.862;6.220;2023-08-06T03:29:10;98743.63;;;14.19;100.00
74905;BME280;63465;50.862;6.220;2023-08-06T03:31:35;98742.53;;;14.33;100.00
74905;BME280;63465;50.862;6.220;2023-08-06T03:34:01;98743.34;;;14.33;100.00
74905;BME280;63465;50.862;6.220;2023-08-06T03:36:26;98745.69;;;14.26;100.00
74905;BME280;63465;50.862;6.220;2023-08-06T03:38:51;98743.22;;;14.35;100.00
74905;BME280;63465;50.862;6.220;2023-08-06T03:41:16;98744.34;;;14.32;100.00
74905;BME280;63465;50.862;6.220;2023-08-06T03:43:42;98742.03;;;14.27;100.00
74905;BME280;63465;50.862;6.220;2023-08-06T03:46:07;98731.63;;;14.24;100.00
74905;BME280;63465;50.862;6.220;2023-08-06T03:48:32;98738.16;;;14.20;100.00
74905;BME280;63465;50.862;6.220;2023-08-06T03:50:58;98736.47;;;14.19;100.00
74905;BME280;63465;50.862;6.220;2023-08-06T03:53:25;98736.47;;;14.31;100.00
74905;BME280;63465;50.862;6.220;2023-08-06T03:55:51;98739.13;;;14.31;100.00
74905;BME280;63465;50.862;6.220;2023-08-06T03:58:16;98742.28;;;14.24;100.00
74905;BME280;63465;50.862;6.220;2023-08-06T04:00:41;98741.66;;;14.21;100.00
74905;BME280;63465;50.862;6.220;2023-08-06T04:03:06;98740.59;;;14.12;100.00
74905;BME280;63465;50.862;6.220;2023-08-06T04:05:32;98742.28;;;14.13;100.00
74905;BME280;63465;50.862;6.220;2023-08-06T04:07:58;98738.03;;;14.33;100.00
74905;BME280;63465;50.862;6.220;2023-08-06T04:10:25;98741.31;;;14.25;100.00
74905;BME280;63465;50.862;6.220;2023-08-06T04:12:50;98742.16;;;14.37;100.00
74905;BME280;63465;50.862;6.220;2023-08-06T04:15:15;98745.44;;;14.30;100.00
74905;BME280;63465;50.862;6.220;2023-08-06T04:17:41;98743.22;;;14.35;100.00
74905;BME280;63465;50.862;6.220;2023-08-06T04:20:06;98742.03;;;14.39;100.00
74905;BME280;63465;50.862;6.220;2023-08-06T04:22:32;98745.91;;;14.46;100.00
74905;BME280;63465;50.862;6.220;2023-08-06T04:24:57;98754.03;;;14.44;100.00
74905;BME280;63465;50.862;6.220;2023-08-06T04:27:22;98754.63;;;14.48;100.00
74905;BME280;63465;50.862;6.220;2023-08-06T04:29:47;98751.00;;;14.49;100.00
74905;BME280;63465;50.862;6.220;2023-08-06T04:32:13;98752.84;;;14.49;100.00
74905;BME280;63465;50.862;6.220;2023-08-06T04:34:38;98750.16;;;14.37;100.00
74905;BME280;63465;50.862;6.220;2023-08-06T04:37:04;98744.56;;;14.40;100.00
74905;BME280;63465;50.862;6.220;2023-08-06T04:39:30;98752.09;;;14.35;100.00
74905;BME280;63465;50.862;6.220;2023-08-06T04:41:55;98747.25;;;14.40;100.00
74905;BME280;63465;50.862;6.220;2023-08-06T04:44:21;98750.88;;;14.39;100.00
74905;BME280;63465;50.862;6.220;2023-08-06T04:46:47;98755.03;;;14.32;100.00
74905;BME280;63465;50.862;6.220;2023-08-06T04:49:12;98758.50;;;14.44;100.00
74905;BME280;63465;50.862;6.220;2023-08-06T04:51:37;98755.25;;;14.40;100.00
74905;BME280;63465;50.862;6.220;2023-08-06T04:54:03;98764.72;;;14.44;100.00
74905;BME280;63465;50.862;6.220;2023-08-06T04:56:29;98755.50;;;14.49;100.00
74905;BME280;63465;50.862;6.220;2023-08-06T04:58:54;98763.84;;;14.44;100.00
74905;BME280;63465;50.862;6.220;2023-08-06T05:01:19;98763.25;;;14.40;100.00
74905;BME280;63465;50.862;6.220;2023-08-06T05:03:46;98766.88;;;14.39;100.00
74905;BME280;63465;50.862;6.220;2023-08-06T05:06:11;98762.78;;;14.35;100.00
74905;BME280;63465;50.862;6.220;2023-08-06T05:08:36;98767.63;;;14.30;100.00
74905;BME280;63465;50.862;6.220;2023-08-06T05:11:02;98765.31;;;14.25;100.00
74905;BME280;63465;50.862;6.220;2023-08-06T05:13:27;98771.13;;;14.42;100.00
74905;BME280;63465;50.862;6.220;2023-08-06T05:15:53;98767.50;;;14.43;100.00
74905;BME280;63465;50.862;6.220;2023-08-06T05:18:19;98769.56;;;14.39;100.00
74905;BME280;63465;50.862;6.220;2023-08-06T05:20:44;98773.81;;;14.42;100.00
74905;BME280;63465;50.862;6.220;2023-08-06T05:23:09;98772.72;;;14.44;100.00
74905;BME280;63465;50.862;6.220;2023-08-06T05:25:35;98783.75;;;14.40;100.00
74905;BME280;63465;50.862;6.220;2023-08-06T05:28:01;98774.78;;;14.41;100.00
74905;BME280;63465;50.862;6.220;2023-08-06T05:30:27;98779.03;;;14.55;100.00
74905;BME280;63465;50.862;6.220;2023-08-06T05:32:52;98784.59;;;14.40;100.00
74905;BME280;63465;50.862;6.220;2023-08-06T05:35:17;98784.47;;;14.42;100.00
74905;BME280;63465;50.862;6.220;2023-08-06T05:37:43;98789.09;;;14.40;100.00
74905;BME280;63465;50.862;6.220;2023-08-06T05:40:08;98788.38;;;14.49;100.00
74905;BME280;63465;50.862;6.220;2023-08-06T05:42:34;98789.31;;;14.48;100.00
74905;BME280;63465;50.862;6.220;2023-08-06T05:44:59;98787.75;;;14.45;100.00
74905;BME280;63465;50.862;6.220;2023-08-06T05:47:24;98796.75;;;14.44;100.00
74905;BME280;63465;50.862;6.220;2023-08-06T05:49:49;98801.84;;;14.48;100.00
74905;BME280;63465;50.862;6.220;2023-08-06T05:52:15;98794.31;;;14.41;100.00
74905;BME280;63465;50.862;6.220;2023-08-06T05:54:40;98803.53;;;14.49;100.00
74905;BME280;63465;50.862;6.220;2023-08-06T05:57:06;98803.44;;;14.61;100.00
74905;BME280;63465;50.862;6.220;2023-08-06T05:59:31;98811.19;;;14.53;100.00
74905;BME280;63465;50.862;6.220;2023-08-06T06:01:56;98807.06;;;14.49;100.00
74905;BME280;63465;50.862;6.220;2023-08-06T06:04:22;98805.84;;;14.53;100.00
74905;BME280;63465;50.862;6.220;2023-08-06T06:06:47;98806.81;;;14.52;100.00
74905;BME280;63465;50.862;6.220;2023-08-06T06:09:12;98803.66;;;14.58;100.00
74905;BME280;63465;50.862;6.220;2023-08-06T06:11:38;98813.28;;;14.61;100.00
74905;BME280;63465;50.862;6.220;2023-08-06T06:14:03;98812.28;;;14.62;100.00
74905;BME280;63465;50.862;6.220;2023-08-06T06:16:28;98820.41;;;14.60;100.00
74905;BME280;63465;50.862;6.220;2023-08-06T06:18:54;98828.41;;;14.60;100.00
74905;BME280;63465;50.862;6.220;2023-08-06T06:21:20;98822.09;;;14.50;100.00
74905;BME280;63465;50.862;6.220;2023-08-06T06:23:45;98828.63;;;14.57;100.00
74905;BME280;63465;50.862;6.220;2023-08-06T06:26:10;98832.53;;;14.53;100.00
74905;BME280;63465;50.862;6.220;2023-08-06T06:28:35;98830.59;;;14.55;100.00
74905;BME280;63465;50.862;6.220;2023-08-06T06:31:01;98836.28;;;14.51;100.00
74905;BME280;63465;50.862;6.220;2023-08-06T06:33:27;98839.56;;;14.54;100.00
74905;BME280;63465;50.862;6.220;2023-08-06T06:35:52;98841.91;;;14.70;100.00
74905;BME280;63465;50.862;6.220;2023-08-06T06:38:18;98842.53;;;14.62;100.00
74905;BME280;63465;50.862;6.220;2023-08-06T06:40:43;98846.50;;;14.68;100.00
74905;BME280;63465;50.862;6.220;2023-08-06T06:43:08;98848.31;;;14.79;100.00
74905;BME280;63465;50.862;6.220;2023-08-06T06:45:34;98849.53;;;14.86;100.00
74905;BME280;63465;50.862;6.220;2023-08-06T06:47:59;98853.31;;;14.72;100.00
74905;BME280;63465;50.862;6.220;2023-08-06T06:50:24;98858.03;;;14.80;100.00
74905;BME280;63465;50.862;6.220;2023-08-06T06:52:51;98859.97;;;14.89;100.00
74905;BME280;63465;50.862;6.220;2023-08-06T06:55:16;98863.13;;;14.83;100.00
74905;BME280;63465;50.862;6.220;2023-08-06T06:57:42;98862.91;;;14.75;100.00
74905;BME280;63465;50.862;6.220;2023-08-06T07:00:07;98860.69;;;14.80;100.00
74905;BME280;63465;50.862;6.220;2023-08-06T07:02:33;98863.97;;;14.95;100.00
74905;BME280;63465;50.862;6.220;2023-08-06T07:04:58;98857.78;;;14.83;100.00
74905;BME280;63465;50.862;6.220;2023-08-06T07:07:23;98868.81;;;14.90;100.00
74905;BME280;63465;50.862;6.220;2023-08-06T07:09:48;98874.53;;;14.85;100.00
74905;BME280;63465;50.862;6.220;2023-08-06T07:12:14;98871.38;;;14.80;100.00
74905;BME280;63465;50.862;6.220;2023-08-06T07:14:39;98874.91;;;14.80;100.00
74905;BME280;63465;50.862;6.220;2023-08-06T07:17:05;98880.00;;;14.95;100.00
74905;BME280;63465;50.862;6.220;2023-08-06T07:19:30;98879.25;;;14.93;100.00
74905;BME280;63465;50.862;6.220;2023-08-06T07:21:55;98884.47;;;14.94;100.00
74905;BME280;63465;50.862;6.220;2023-08-06T07:24:21;98889.22;;;14.91;100.00
74905;BME280;63465;50.862;6.220;2023-08-06T07:26:46;98892.47;;;14.94;100.00
74905;BME280;63465;50.862;6.220;2023-08-06T07:29:12;98895.78;;;14.98;100.00
74905;BME280;63465;50.862;6.220;2023-08-06T07:31:37;98896.16;;;14.93;100.00
74905;BME280;63465;50.862;6.220;2023-08-06T07:34:03;98898.22;;;14.67;100.00
74905;BME280;63465;50.862;6.220;2023-08-06T07:36:28;98909.59;;;14.58;100.00
74905;BME280;63465;50.862;6.220;2023-08-06T07:38:54;98912.78;;;14.63;100.00
74905;BME280;63465;50.862;6.220;2023-08-06T07:41:24;98919.34;;;14.70;100.00
74905;BME280;63465;50.862;6.220;2023-08-06T07:43:50;98926.47;;;14.58;100.00
74905;BME280;63465;50.862;6.220;2023-08-06T07:46:15;98926.56;;;14.57;100.00
74905;BME280;63465;50.862;6.220;2023-08-06T07:48:40;98930.97;;;14.69;100.00
74905;BME280;63465;50.862;6.220;2023-08-06T07:51:06;98928.56;;;14.77;100.00
74905;BME280;63465;50.862;6.220;2023-08-06T07:53:31;98930.84;;;14.59;100.00
74905;BME280;63465;50.862;6.220;2023-08-06T07:55:57;98936.81;;;14.74;100.00
74905;BME280;63465;50.862;6.220;2023-08-06T07:58:23;98939.34;;;14.76;100.00
74905;BME280;63465;50.862;6.220;2023-08-06T08:00:49;98935.22;;;14.60;100.00
74905;BME280;63465;50.862;6.220;2023-08-06T08:03:15;98940.75;;;14.57;100.00
74905;BME280;63465;50.862;6.220;2023-08-06T08:05:42;98942.59;;;14.57;100.00
74905;BME280;63465;50.862;6.220;2023-08-06T08:08:07;98941.88;;;14.55;100.00
74905;BME280;63465;50.862;6.220;2023-08-06T08:10:33;98946.09;;;14.57;100.00
74905;BME280;63465;50.862;6.220;2023-08-06T08:13:00;98948.53;;;14.49;100.00
74905;BME280;63465;50.862;6.220;2023-08-06T08:15:25;98959.81;;;14.53;100.00
74905;BME280;63465;50.862;6.220;2023-08-06T08:17:51;98961.03;;;14.49;100.00
74905;BME280;63465;50.862;6.220;2023-08-06T08:20:17;98969.91;;;14.14;100.00
74905;BME280;63465;50.862;6.220;2023-08-06T08:22:43;98981.28;;;13.80;100.00
74905;BME280;63465;50.862;6.220;2023-08-06T08:25:08;98982.75;;;13.84;100.00
74905;BME280;63465;50.862;6.220;2023-08-06T08:27:33;98998.53;;;13.87;100.00
74905;BME280;63465;50.862;6.220;2023-08-06T08:29:58;99012.25;;;13.70;100.00
74905;BME280;63465;50.862;6.220;2023-08-06T08:32:24;99006.06;;;13.69;100.00
74905;BME280;63465;50.862;6.220;2023-08-06T08:34:49;99017.78;;;13.67;100.00
74905;BME280;63465;50.862;6.220;2023-08-06T08:37:14;99009.19;;;13.63;100.00
74905;BME280;63465;50.862;6.220;2023-08-06T08:39:40;99029.41;;;13.66;100.00
74905;BME280;63465;50.862;6.220;2023-08-06T08:42:06;99024.72;;;13.69;100.00
74905;BME280;63465;50.862;6.220;2023-08-06T08:44:32;99034.41;;;13.70;100.00
74905;BME280;63465;50.862;6.220;2023-08-06T08:46:59;99045.84;;;13.72;100.00
74905;BME280;63465;50.862;6.220;2023-08-06T08:49:26;99048.38;;;13.74;100.00
74905;BME280;63465;50.862;6.220;2023-08-06T08:51:53;99043.88;;;13.87;100.00
74905;BME280;63465;50.862;6.220;2023-08-06T08:54:22;99055.72;;;13.83;100.00
74905;BME280;63465;50.862;6.220;2023-08-06T08:56:48;99059.88;;;13.87;100.00
74905;BME280;63465;50.862;6.220;2023-08-06T08:59:13;99058.88;;;13.88;100.00
74905;BME280;63465;50.862;6.220;2023-08-06T09:01:39;99054.53;;;13.87;100.00
74905;BME280;63465;50.862;6.220;2023-08-06T09:04:07;99067.66;;;13.90;100.00
74905;BME280;63465;50.862;6.220;2023-08-06T09:06:37;99060.41;;;13.80;100.00
74905;BME280;63465;50.862;6.220;2023-08-06T09:09:08;99077.72;;;13.61;100.00
74905;BME280;63465;50.862;6.220;2023-08-06T09:11:43;99078.28;;;13.66;100.00
74905;BME280;63465;50.862;6.220;2023-08-06T09:14:09;99086.59;;;13.62;100.00
74905;BME280;63465;50.862;6.220;2023-08-06T09:16:36;99112.16;;;13.64;100.00
74905;BME280;63465;50.862;6.220;2023-08-06T09:19:11;99107.69;;;13.65;100.00
74905;BME280;63465;50.862;6.220;2023-08-06T09:21:43;99108.75;;;13.62;100.00
74905;BME280;63465;50.862;6.220;2023-08-06T09:24:09;99113.69;;;13.55;100.00
74905;BME280;63465;50.862;6.220;2023-08-06T09:26:40;99125.53;;;13.51;100.00
74905;BME280;63465;50.862;6.220;2023-08-06T09:29:06;99130.44;;;13.45;100.00
74905;BME280;63465;50.862;6.220;2023-08-06T09:31:33;99126.28;;;13.41;100.00
74905;BME280;63465;50.862;6.220;2023-08-06T09:34:00;99140.22;;;13.44;100.00
74905;BME280;63465;50.862;6.220;2023-08-06T09:36:27;99144.28;;;13.50;100.00
74905;BME280;63465;50.862;6.220;2023-08-06T09:38:52;99140.66;;;13.51;100.00
74905;BME280;63465;50.862;6.220;2023-08-06T09:41:26;99144.69;;;13.56;100.00
74905;BME280;63465;50.862;6.220;2023-08-06T09:43:54;99146.53;;;13.56;100.00
74905;BME280;63465;50.862;6.220;2023-08-06T09:46:20;99149.06;;;13.58;100.00
74905;BME280;63465;50.862;6.220;2023-08-06T09:48:47;99150.78;;;13.59;100.00
74905;BME280;63465;50.862;6.220;2023-08-06T09:51:13;99161.47;;;13.59;100.00
74905;BME280;63465;50.862;6.220;2023-08-06T09:53:40;99163.13;;;13.60;100.00
74905;BME280;63465;50.862;6.220;2023-08-06T09:56:06;99164.75;;;13.62;100.00
74905;BME280;63465;50.862;6.220;2023-08-06T09:58:32;99169.75;;;13.67;100.00
74905;BME280;63465;50.862;6.220;2023-08-06T10:00:59;99160.16;;;13.77;100.00
74905;BME280;63465;50.862;6.220;2023-08-06T10:03:25;99171.03;;;13.74;100.00
74905;BME280;63465;50.862;6.220;2023-08-06T10:05:53;99162.72;;;13.79;100.00
74905;BME280;63465;50.862;6.220;2023-08-06T10:08:20;99162.06;;;13.88;100.00
74905;BME280;63465;50.862;6.220;2023-08-06T10:10:45;99173.38;;;13.79;100.00
74905;BME280;63465;50.862;6.220;2023-08-06T10:13:12;99173.34;;;13.91;100.00
74905;BME280;63465;50.862;6.220;2023-08-06T10:15:38;99167.28;;;13.89;100.00
74905;BME280;63465;50.862;6.220;2023-08-06T10:18:05;99179.97;;;13.99;100.00
74905;BME280;63465;50.862;6.220;2023-08-06T10:20:34;99167.56;;;13.98;100.00
74905;BME280;63465;50.862;6.220;2023-08-06T10:23:01;99178.03;;;14.01;100.00
74905;BME280;63465;50.862;6.220;2023-08-06T10:25:30;99189.19;;;14.19;100.00
74905;BME280;63465;50.862;6.220;2023-08-06T10:27:56;99193.25;;;14.12;100.00
74905;BME280;63465;50.862;6.220;2023-08-06T10:32:51;99192.53;;;14.09;100.00
74905;BME280;63465;50.862;6.220;2023-08-06T10:35:36;99194.03;;;14.14;100.00
74905;BME280;63465;50.862;6.220;2023-08-06T10:38:18;99197.75;;;14.11;100.00
74905;BME280;63465;50.862;6.220;2023-08-06T10:43:31;99206.47;;;14.13;100.00
74905;BME280;63465;50.862;6.220;2023-08-06T10:45:58;99202.47;;;14.07;100.00
74905;BME280;63465;50.862;6.220;2023-08-06T10:48:45;99207.91;;;14.06;100.00
74905;BME280;63465;50.862;6.220;2023-08-06T10:51:12;99213.94;;;14.21;100.00
74905;BME280;63465;50.862;6.220;2023-08-06T10:53:41;99203.59;;;14.16;100.00
74905;BME280;63465;50.862;6.220;2023-08-06T10:56:14;99209.03;;;14.27;100.00
74905;BME280;63465;50.862;6.220;2023-08-06T10:58:40;99207.25;;;14.15;100.00
74905;BME280;63465;50.862;6.220;2023-08-06T11:01:06;99214.31;;;14.40;100.00
74905;BME280;63465;50.862;6.220;2023-08-06T11:03:32;99210.75;;;14.53;100.00
74905;BME280;63465;50.862;6.220;2023-08-06T11:05:58;99208.41;;;14.48;100.00
74905;BME280;63465;50.862;6.220;2023-08-06T11:08:27;99210.97;;;14.50;100.00
74905;BME280;63465;50.862;6.220;2023-08-06T11:10:53;99216.31;;;14.62;100.00
74905;BME280;63465;50.862;6.220;2023-08-06T11:13:20;99205.63;;;14.62;100.00
74905;BME280;63465;50.862;6.220;2023-08-06T11:15:46;99208.81;;;14.92;100.00
74905;BME280;63465;50.862;6.220;2023-08-06T11:18:11;99208.97;;;14.77;100.00
74905;BME280;63465;50.862;6.220;2023-08-06T11:20:37;99212.63;;;14.76;100.00
74905;BME280;63465;50.862;6.220;2023-08-06T11:23:02;99212.41;;;14.79;100.00
74905;BME280;63465;50.862;6.220;2023-08-06T11:25:28;99219.72;;;14.65;100.00
74905;BME280;63465;50.862;6.220;2023-08-06T11:27:54;99217.41;;;14.84;100.00
74905;BME280;63465;50.862;6.220;2023-08-06T11:30:19;99227.88;;;14.98;100.00
74905;BME280;63465;50.862;6.220;2023-08-06T11:32:46;99218.59;;;14.80;100.00
74905;BME280;63465;50.862;6.220;2023-08-06T11:35:12;99217.56;;;14.94;100.00
74905;BME280;63465;50.862;6.220;2023-08-06T11:37:39;99219.91;;;15.10;100.00
74905;BME280;63465;50.862;6.220;2023-08-06T11:40:08;99221.81;;;14.72;100.00
74905;BME280;63465;50.862;6.220;2023-08-06T11:42:33;99223.53;;;14.73;100.00
74905;BME280;63465;50.862;6.220;2023-08-06T11:45:02;99224.94;;;14.90;100.00
74905;BME280;63465;50.862;6.220;2023-08-06T11:47:28;99227.63;;;14.66;100.00
74905;BME280;63465;50.862;6.220;2023-08-06T11:49:53;99227.13;;;14.61;100.00
74905;BME280;63465;50.862;6.220;2023-08-06T11:52:20;99236.00;;;14.49;100.00
74905;BME280;63465;50.862;6.220;2023-08-06T11:55:00;99243.22;;;14.47;100.00
74905;BME280;63465;50.862;6.220;2023-08-06T11:57:26;99252.28;;;14.57;100.00
74905;BME280;63465;50.862;6.220;2023-08-06T11:59:53;99252.28;;;14.57;100.00
74905;BME280;63465;50.862;6.220;2023-08-06T12:02:21;99251.91;;;14.50;100.00
74905;BME280;63465;50.862;6.220;2023-08-06T12:05:10;99252.31;;;14.44;100.00
74905;BME280;63465;50.862;6.220;2023-08-06T12:07:38;99250.47;;;14.57;100.00
74905;BME280;63465;50.862;6.220;2023-08-06T12:10:04;99259.09;;;14.74;100.00
74905;BME280;63465;50.862;6.220;2023-08-06T12:12:30;99251.09;;;14.74;100.00
74905;BME280;63465;50.862;6.220;2023-08-06T12:14:55;99254.38;;;14.77;100.00
74905;BME280;63465;50.862;6.220;2023-08-06T12:17:21;99259.44;;;14.69;100.00
74905;BME280;63465;50.862;6.220;2023-08-06T12:19:47;99257.63;;;14.94;100.00
74905;BME280;63465;50.862;6.220;2023-08-06T12:22:13;99248.88;;;14.68;100.00
74905;BME280;63465;50.862;6.220;2023-08-06T12:24:40;99262.59;;;14.87;100.00
74905;BME280;63465;50.862;6.220;2023-08-06T12:27:05;99258.47;;;14.70;100.00
74905;BME280;63465;50.862;6.220;2023-08-06T12:29:30;99260.94;;;14.73;100.00
74905;BME280;63465;50.862;6.220;2023-08-06T12:31:56;99260.75;;;14.88;100.00
74905;BME280;63465;50.862;6.220;2023-08-06T12:34:21;99265.06;;;15.02;100.00
74905;BME280;63465;50.862;6.220;2023-08-06T12:36:47;99255.63;;;14.85;100.00
74905;BME280;63465;50.862;6.220;2023-08-06T12:39:12;99268.16;;;14.84;100.00
74905;BME280;63465;50.862;6.220;2023-08-06T12:41:38;99278.53;;;14.76;100.00
74905;BME280;63465;50.862;6.220;2023-08-06T12:44:03;99272.00;;;14.80;100.00
74905;BME280;63465;50.862;6.220;2023-08-06T12:46:30;99282.06;;;14.76;100.00
74905;BME280;63465;50.862;6.220;2023-08-06T12:48:55;99279.00;;;14.94;100.00
74905;BME280;63465;50.862;6.220;2023-08-06T12:51:22;99271.31;;;14.89;100.00
74905;BME280;63465;50.862;6.220;2023-08-06T12:53:48;99285.81;;;14.98;100.00